sensor_id;sensor_type;location;lat;lon;timestamp;temperature;humidity
6142;DHT22;71289;51.552;6.210;2023-09-07T00:01:06;21.50;99.90
6142;DHT22;71289;51.552;6.210;2023-09-07T00:03:32;21.40;99.90
6142;DHT22;71289;51.552;6.210;2023-09-07T00:05:57;21.30;99.90
6142;DHT22;71289;51.552;6.210;2023-09-07T00:08:23;21.30;99.90
6142;DHT22;71289;51.552;6.210;2023-09-07T00:10:50;21.20;99.90
6142;DHT22;71289;51.552;6.210;2023-09-07T00:13:16;21.10;99.90
6142;DHT22;71289;51.552;6.210;2023-09-07T00:15:42;21.00;99.90
6142;DHT22;71289;51.552;6.210;2023-09-07T00:18:08;20.90;99.90
6142;DHT22;71289;51.552;6.210;2023-09-07T00:20:34;20.80;99.90
6142;DHT22;71289;51.552;6.210;2023-09-07T00:23:01;20.70;99.90
6142;DHT22;71289;51.552;6.210;2023-09-07T00:25:27;20.60;99.90
6142;DHT22;71289;51.552;6.210;2023-09-07T00:27:52;20.60;99.90
6142;DHT22;71289;51.552;6.210;2023-09-07T00:30:18;20.50;99.90
6142;DHT22;71289;51.552;6.210;2023-09-07T00:32:43;20.50;99.90
6142;DHT22;71289;51.552;6.210;2023-09-07T00:35:09;20.60;99.90
6142;DHT22;71289;51.552;6.210;2023-09-07T00:37:35;20.60;99.90
6142;DHT22;71289;51.552;6.210;2023-09-07T00:40:01;20.60;99.90
6142;DHT22;71289;51.552;6.210;2023-09-07T00:42:26;20.60;99.90
6142;DHT22;71289;51.552;6.210;2023-09-07T00:44:53;20.60;99.90
6142;DHT22;71289;51.552;6.210;2023-09-07T00:47:18;20.60;99.90
6142;DHT22;71289;51.552;6.210;2023-09-07T00:49:44;21.10;99.90
6142;DHT22;71289;51.552;6.210;2023-09-07T00:52:10;20.70;99.90
6142;DHT22;71289;51.552;6.210;2023-09-07T00:54:36;20.70;99.90
6142;DHT22;71289;51.552;6.210;2023-09-07T00:57:04;20.70;99.90
6142;DHT22;71289;51.552;6.210;2023-09-07T00:59:32;20.80;99.90
6142;DHT22;71289;51.552;6.210;2023-09-07T01:01:58;20.80;99.90
6142;DHT22;71289;51.552;6.210;2023-09-07T01:04:23;20.80;99.90
6142;DHT22;71289;51.552;6.210;2023-09-07T01:07:14;21.20;99.90
6142;DHT22;71289;51.552;6.210;2023-09-07T01:09:43;20.90;99.90
6142;DHT22;71289;51.552;6.210;2023-09-07T01:12:16;20.90;99.90
6142;DHT22;71289;51.552;6.210;2023-09-07T01:14:41;20.90;99.90
6142;DHT22;71289;51.552;6.210;2023-09-07T01:17:09;20.80;99.90
6142;DHT22;71289;51.552;6.210;2023-09-07T01:19:35;20.90;99.90
6142;DHT22;71289;51.552;6.210;2023-09-07T01:22:00;20.80;99.90
6142;DHT22;71289;51.552;6.210;2023-09-07T01:24:28;20.70;99.90
6142;DHT22;71289;51.552;6.210;2023-09-07T01:26:58;20.60;99.90
6142;DHT22;71289;51.552;6.210;2023-09-07T01:29:24;20.60;99.90
6142;DHT22;71289;51.552;6.210;2023-09-07T01:31:52;20.60;99.90
6142;DHT22;71289;51.552;6.210;2023-09-07T01:34:18;20.50;99.90
6142;DHT22;71289;51.552;6.210;2023-09-07T01:36:43;20.80;99.90
6142;DHT22;71289;51.552;6.210;2023-09-07T01:39:09;20.40;99.90
6142;DHT22;71289;51.552;6.210;2023-09-07T01:41:34;20.30;99.90
6142;DHT22;71289;51.552;6.210;2023-09-07T01:44:00;20.30;99.90
6142;DHT22;71289;51.552;6.210;2023-09-07T01:46:25;20.30;99.90
6142;DHT22;71289;51.552;6.210;2023-09-07T01:48:51;20.30;99.90
6142;DHT22;71289;51.552;6.210;2023-09-07T01:51:17;20.20;99.90
6142;DHT22;71289;51.552;6.210;2023-09-07T01:53:42;20.20;99.90
6142;DHT22;71289;51.552;6.210;2023-09-07T01:56:09;20.20;99.90
6142;DHT22;71289;51.552;6.210;2023-09-07T01:58:34;20.10;99.90
6142;DHT22;71289;51.552;6.210;2023-09-07T02:01:00;20.10;99.90
6142;DHT22;71289;51.552;6.210;2023-09-07T02:03:26;20.20;99.90
6142;DHT22;71289;51.552;6.210;2023-09-07T02:05:54;20.10;99.90
6142;DHT22;71289;51.552;6.210;2023-09-07T02:08:20;19.90;99.90
6142;DHT22;71289;51.552;6.210;2023-09-07T02:10:45;19.80;99.90
6142;DHT22;71289;51.552;6.210;2023-09-07T02:13:11;20.10;99.90
6142;DHT22;71289;51.552;6.210;2023-09-07T02:15:38;19.90;99.90
6142;DHT22;71289;51.552;6.210;2023-09-07T02:18:04;19.90;99.90
6142;DHT22;71289;51.552;6.210;2023-09-07T02:20:33;19.90;99.90
6142;DHT22;71289;51.552;6.210;2023-09-07T02:22:59;19.90;99.90
6142;DHT22;71289;51.552;6.210;2023-09-07T02:25:25;19.80;99.90
6142;DHT22;71289;51.552;6.210;2023-09-07T02:27:50;19.80;99.90
6142;DHT22;71289;51.552;6.210;2023-09-07T02:30:16;19.70;99.90
6142;DHT22;71289;51.552;6.210;2023-09-07T02:32:43;19.60;99.90
6142;DHT22;71289;51.552;6.210;2023-09-07T02:35:08;19.50;99.90
6142;DHT22;71289;51.552;6.210;2023-09-07T02:37:35;19.50;99.90
6142;DHT22;71289;51.552;6.210;2023-09-07T02:40:01;19.40;99.90
6142;DHT22;71289;51.552;6.210;2023-09-07T02:42:26;19.40;99.90
6142;DHT22;71289;51.552;6.210;2023-09-07T02:44:52;19.40;99.90
6142;DHT22;71289;51.552;6.210;2023-09-07T02:47:18;19.30;99.90
6142;DHT22;71289;51.552;6.210;2023-09-07T02:49:44;19.30;99.90
6142;DHT22;71289;51.552;6.210;2023-09-07T02:52:09;19.30;99.90
6142;DHT22;71289;51.552;6.210;2023-09-07T02:54:35;19.30;99.90
6142;DHT22;71289;51.552;6.210;2023-09-07T02:57:00;19.30;99.90
6142;DHT22;71289;51.552;6.210;2023-09-07T02:59:26;19.30;99.90
6142;DHT22;71289;51.552;6.210;2023-09-07T03:01:52;19.30;99.90
6142;DHT22;71289;51.552;6.210;2023-09-07T03:04:17;19.20;99.90
6142;DHT22;71289;51.552;6.210;2023-09-07T03:06:43;19.30;99.90
6142;DHT22;71289;51.552;6.210;2023-09-07T03:09:08;19.20;99.90
6142;DHT22;71289;51.552;6.210;2023-09-07T03:11:35;19.30;99.90
6142;DHT22;71289;51.552;6.210;2023-09-07T03:14:00;19.20;99.90
6142;DHT22;71289;51.552;6.210;2023-09-07T03:16:26;19.20;99.90
6142;DHT22;71289;51.552;6.210;2023-09-07T03:18:52;19.20;99.90
6142;DHT22;71289;51.552;6.210;2023-09-07T03:21:18;19.20;99.90
6142;DHT22;71289;51.552;6.210;2023-09-07T03:23:43;19.40;99.90
6142;DHT22;71289;51.552;6.210;2023-09-07T03:26:10;19.20;99.90
6142;DHT22;71289;51.552;6.210;2023-09-07T03:28:36;19.10;99.90
6142;DHT22;71289;51.552;6.210;2023-09-07T03:31:01;19.10;99.90
6142;DHT22;71289;51.552;6.210;2023-09-07T03:33:27;19.10;99.90
6142;DHT22;71289;51.552;6.210;2023-09-07T03:35:52;19.10;99.90
6142;DHT22;71289;51.552;6.210;2023-09-07T03:38:18;19.10;99.90
6142;DHT22;71289;51.552;6.210;2023-09-07T03:40:44;19.00;99.90
6142;DHT22;71289;51.552;6.210;2023-09-07T03:43:10;19.30;99.90
6142;DHT22;71289;51.552;6.210;2023-09-07T03:45:35;18.90;99.90
6142;DHT22;71289;51.552;6.210;2023-09-07T03:48:01;19.20;99.90
6142;DHT22;71289;51.552;6.210;2023-09-07T03:50:26;19.00;99.90
6142;DHT22;71289;51.552;6.210;2023-09-07T03:52:52;18.90;99.90
6142;DHT22;71289;51.552;6.210;2023-09-07T03:55:17;18.90;99.90
6142;DHT22;71289;51.552;6.210;2023-09-07T03:57:43;18.90;99.90
6142;DHT22;71289;51.552;6.210;2023-09-07T04:00:09;19.10;99.90
6142;DHT22;71289;51.552;6.210;2023-09-07T04:02:35;18.80;99.90
6142;DHT22;71289;51.552;6.210;2023-09-07T04:05:00;18.70;99.90
6142;DHT22;71289;51.552;6.210;2023-09-07T04:07:30;18.90;99.90
6142;DHT22;71289;51.552;6.210;2023-09-07T04:09:56;18.70;99.90
6142;DHT22;71289;51.552;6.210;2023-09-07T04:12:22;18.60;99.90
6142;DHT22;71289;51.552;6.210;2023-09-07T04:14:47;18.50;99.90
6142;DHT22;71289;51.552;6.210;2023-09-07T04:17:13;18.50;99.90
6142;DHT22;71289;51.552;6.210;2023-09-07T04:19:38;18.50;99.90
6142;DHT22;71289;51.552;6.210;2023-09-07T04:22:04;18.50;99.90
6142;DHT22;71289;51.552;6.210;2023-09-07T04:24:29;18.50;99.90
6142;DHT22;71289;51.552;6.210;2023-09-07T04:27:01;18.40;99.90
6142;DHT22;71289;51.552;6.210;2023-09-07T04:29:27;18.40;99.90
6142;DHT22;71289;51.552;6.210;2023-09-07T04:31:53;18.40;99.90
6142;DHT22;71289;51.552;6.210;2023-09-07T04:34:20;18.40;99.90
6142;DHT22;71289;51.552;6.210;2023-09-07T04:36:46;18.30;99.90
6142;DHT22;71289;51.552;6.210;2023-09-07T04:39:11;18.40;99.90
6142;DHT22;71289;51.552;6.210;2023-09-07T04:41:39;18.40;99.90
6142;DHT22;71289;51.552;6.210;2023-09-07T04:44:05;18.30;99.90
6142;DHT22;71289;51.552;6.210;2023-09-07T04:46:31;18.30;99.90
6142;DHT22;71289;51.552;6.210;2023-09-07T04:48:56;18.40;99.90
6142;DHT22;71289;51.552;6.210;2023-09-07T04:51:22;18.60;99.90
6142;DHT22;71289;51.552;6.210;2023-09-07T04:53:49;18.30;99.90
6142;DHT22;71289;51.552;6.210;2023-09-07T04:56:14;18.30;99.90
6142;DHT22;71289;51.552;6.210;2023-09-07T04:58:41;18.40;99.90
6142;DHT22;71289;51.552;6.210;2023-09-07T05:01:09;18.30;99.90
6142;DHT22;71289;51.552;6.210;2023-09-07T05:03:36;18.20;99.90
6142;DHT22;71289;51.552;6.210;2023-09-07T05:06:02;18.10;99.90
6142;DHT22;71289;51.552;6.210;2023-09-07T05:08:30;18.20;99.90
6142;DHT22;71289;51.552;6.210;2023-09-07T05:11:01;18.00;99.90
6142;DHT22;71289;51.552;6.210;2023-09-07T05:13:27;18.00;99.90
6142;DHT22;71289;51.552;6.210;2023-09-07T05:15:53;17.90;99.90
6142;DHT22;71289;51.552;6.210;2023-09-07T05:18:20;18.20;99.90
6142;DHT22;71289;51.552;6.210;2023-09-07T05:20:45;17.90;99.90
6142;DHT22;71289;51.552;6.210;2023-09-07T05:23:18;17.90;99.90
6142;DHT22;71289;51.552;6.210;2023-09-07T05:25:52;17.80;99.90
6142;DHT22;71289;51.552;6.210;2023-09-07T05:28:19;18.00;99.90
6142;DHT22;71289;51.552;6.210;2023-09-07T05:30:45;17.80;99.90
6142;DHT22;71289;51.552;6.210;2023-09-07T05:33:13;17.80;99.90
6142;DHT22;71289;51.552;6.210;2023-09-07T05:35:40;17.90;99.90
6142;DHT22;71289;51.552;6.210;2023-09-07T05:38:07;18.30;99.90
6142;DHT22;71289;51.552;6.210;2023-09-07T05:40:37;18.00;99.90
6142;DHT22;71289;51.552;6.210;2023-09-07T05:43:03;17.90;99.90
6142;DHT22;71289;51.552;6.210;2023-09-07T05:45:30;18.00;99.90
6142;DHT22;71289;51.552;6.210;2023-09-07T05:47:56;18.00;99.90
6142;DHT22;71289;51.552;6.210;2023-09-07T05:50:22;18.00;99.90
6142;DHT22;71289;51.552;6.210;2023-09-07T05:52:47;18.20;99.90
6142;DHT22;71289;51.552;6.210;2023-09-07T05:55:13;18.00;99.90
6142;DHT22;71289;51.552;6.210;2023-09-07T05:57:38;17.90;99.90
6142;DHT22;71289;51.552;6.210;2023-09-07T06:00:04;18.10;99.90
6142;DHT22;71289;51.552;6.210;2023-09-07T06:02:30;18.10;99.90
6142;DHT22;71289;51.552;6.210;2023-09-07T06:04:56;18.20;99.90
6142;DHT22;71289;51.552;6.210;2023-09-07T06:07:21;18.20;99.90
6142;DHT22;71289;51.552;6.210;2023-09-07T06:09:47;18.30;99.90
6142;DHT22;71289;51.552;6.210;2023-09-07T06:12:13;18.30;99.90
6142;DHT22;71289;51.552;6.210;2023-09-07T06:14:39;18.40;99.90
6142;DHT22;71289;51.552;6.210;2023-09-07T06:17:04;18.50;99.90
6142;DHT22;71289;51.552;6.210;2023-09-07T06:19:30;18.90;99.90
6142;DHT22;71289;51.552;6.210;2023-09-07T06:21:56;18.60;99.90
6142;DHT22;71289;51.552;6.210;2023-09-07T06:24:22;18.70;99.90
6142;DHT22;71289;51.552;6.210;2023-09-07T06:26:47;18.90;99.90
6142;DHT22;71289;51.552;6.210;2023-09-07T06:29:13;18.90;99.90
6142;DHT22;71289;51.552;6.210;2023-09-07T06:31:39;18.90;99.90
6142;DHT22;71289;51.552;6.210;2023-09-07T06:34:04;19.00;99.90
6142;DHT22;71289;51.552;6.210;2023-09-07T06:36:30;19.10;99.90
6142;DHT22;71289;51.552;6.210;2023-09-07T06:38:56;19.20;99.90
6142;DHT22;71289;51.552;6.210;2023-09-07T06:41:21;19.60;99.90
6142;DHT22;71289;51.552;6.210;2023-09-07T06:43:47;19.40;99.90
6142;DHT22;71289;51.552;6.210;2023-09-07T06:46:13;19.50;99.90
6142;DHT22;71289;51.552;6.210;2023-09-07T06:48:38;19.60;99.90
6142;DHT22;71289;51.552;6.210;2023-09-07T06:51:05;19.70;99.90
6142;DHT22;71289;51.552;6.210;2023-09-07T06:53:31;19.80;99.90
6142;DHT22;71289;51.552;6.210;2023-09-07T06:56:00;20.20;99.90
6142;DHT22;71289;51.552;6.210;2023-09-07T06:58:26;20.20;99.90
6142;DHT22;71289;51.552;6.210;2023-09-07T07:00:52;20.10;99.90
6142;DHT22;71289;51.552;6.210;2023-09-07T07:03:18;20.10;99.90
6142;DHT22;71289;51.552;6.210;2023-09-07T07:05:44;20.20;99.90
6142;DHT22;71289;51.552;6.210;2023-09-07T07:08:09;20.40;99.90
6142;DHT22;71289;51.552;6.210;2023-09-07T07:10:35;20.50;99.90
6142;DHT22;71289;51.552;6.210;2023-09-07T07:13:01;20.70;99.90
6142;DHT22;71289;51.552;6.210;2023-09-07T07:15:26;20.80;99.90
6142;DHT22;71289;51.552;6.210;2023-09-07T07:17:52;20.90;99.90
6142;DHT22;71289;51.552;6.210;2023-09-07T07:20:17;21.00;99.90
6142;DHT22;71289;51.552;6.210;2023-09-07T07:22:43;21.10;99.90
6142;DHT22;71289;51.552;6.210;2023-09-07T07:25:10;21.20;99.90
6142;DHT22;71289;51.552;6.210;2023-09-07T07:27:36;21.30;99.90
6142;DHT22;71289;51.552;6.210;2023-09-07T07:30:02;21.40;99.90
6142;DHT22;71289;51.552;6.210;2023-09-07T07:32:28;21.50;99.90
6142;DHT22;71289;51.552;6.210;2023-09-07T07:34:53;21.60;99.90
6142;DHT22;71289;51.552;6.210;2023-09-07T07:37:19;21.70;99.90
6142;DHT22;71289;51.552;6.210;2023-09-07T07:39:44;21.80;99.90
6142;DHT22;71289;51.552;6.210;2023-09-07T07:42:10;21.90;99.90
6142;DHT22;71289;51.552;6.210;2023-09-07T07:44:35;22.00;99.90
6142;DHT22;71289;51.552;6.210;2023-09-07T07:47:01;22.10;99.90
6142;DHT22;71289;51.552;6.210;2023-09-07T07:49:26;22.20;99.90
6142;DHT22;71289;51.552;6.210;2023-09-07T07:51:53;22.70;99.90
6142;DHT22;71289;51.552;6.210;2023-09-07T07:54:20;22.40;99.90
6142;DHT22;71289;51.552;6.210;2023-09-07T07:56:48;22.60;99.90
6142;DHT22;71289;51.552;6.210;2023-09-07T07:59:13;22.60;99.90
6142;DHT22;71289;51.552;6.210;2023-09-07T08:01:39;22.50;99.90
6142;DHT22;71289;51.552;6.210;2023-09-07T08:04:05;22.90;99.90
6142;DHT22;71289;51.552;6.210;2023-09-07T08:06:30;23.00;99.90
6142;DHT22;71289;51.552;6.210;2023-09-07T08:08:56;23.10;99.90
6142;DHT22;71289;51.552;6.210;2023-09-07T08:11:22;23.30;99.90
6142;DHT22;71289;51.552;6.210;2023-09-07T08:13:47;23.50;99.90
6142;DHT22;71289;51.552;6.210;2023-09-07T08:16:13;23.50;99.90
6142;DHT22;71289;51.552;6.210;2023-09-07T08:18:38;23.70;99.90
6142;DHT22;71289;51.552;6.210;2023-09-07T08:21:05;23.80;99.90
6142;DHT22;71289;51.552;6.210;2023-09-07T08:23:31;23.90;99.90
6142;DHT22;71289;51.552;6.210;2023-09-07T08:25:56;24.00;99.90
6142;DHT22;71289;51.552;6.210;2023-09-07T08:28:22;24.10;99.90
6142;DHT22;71289;51.552;6.210;2023-09-07T08:30:51;24.20;99.90
6142;DHT22;71289;51.552;6.210;2023-09-07T08:33:21;24.30;99.90
6142;DHT22;71289;51.552;6.210;2023-09-07T08:35:57;24.30;99.90
6142;DHT22;71289;51.552;6.210;2023-09-07T08:38:23;24.40;99.90
6142;DHT22;71289;51.552;6.210;2023-09-07T08:40:58;24.50;99.90
6142;DHT22;71289;51.552;6.210;2023-09-07T08:43:27;24.50;99.90
6142;DHT22;71289;51.552;6.210;2023-09-07T08:46:17;24.70;99.90
6142;DHT22;71289;51.552;6.210;2023-09-07T08:48:43;24.90;99.90
6142;DHT22;71289;51.552;6.210;2023-09-07T08:51:12;24.60;99.90
6142;DHT22;71289;51.552;6.210;2023-09-07T08:53:40;24.90;99.90
6142;DHT22;71289;51.552;6.210;2023-09-07T08:56:07;24.90;99.90
6142;DHT22;71289;51.552;6.210;2023-09-07T08:58:36;25.30;99.90
6142;DHT22;71289;51.552;6.210;2023-09-07T09:01:01;25.10;99.90
6142;DHT22;71289;51.552;6.210;2023-09-07T09:03:27;25.30;99.90
6142;DHT22;71289;51.552;6.210;2023-09-07T09:05:55;25.50;99.90
6142;DHT22;71289;51.552;6.210;2023-09-07T09:08:21;25.70;99.90
6142;DHT22;71289;51.552;6.210;2023-09-07T09:10:58;25.60;99.90
6142;DHT22;71289;51.552;6.210;2023-09-07T09:13:29;25.80;99.90
6142;DHT22;71289;51.552;6.210;2023-09-07T09:15:55;25.80;99.90
6142;DHT22;71289;51.552;6.210;2023-09-07T09:18:20;25.60;99.90
6142;DHT22;71289;51.552;6.210;2023-09-07T09:20:46;25.50;99.90
6142;DHT22;71289;51.552;6.210;2023-09-07T09:23:12;25.60;99.90
6142;DHT22;71289;51.552;6.210;2023-09-07T09:25:40;25.60;99.90
6142;DHT22;71289;51.552;6.210;2023-09-07T09:28:06;25.50;99.90
6142;DHT22;71289;51.552;6.210;2023-09-07T09:30:31;25.60;99.90
6142;DHT22;71289;51.552;6.210;2023-09-07T09:32:58;25.70;99.90
6142;DHT22;71289;51.552;6.210;2023-09-07T09:35:24;25.80;99.90
6142;DHT22;71289;51.552;6.210;2023-09-07T09:37:50;25.90;99.90
6142;DHT22;71289;51.552;6.210;2023-09-07T09:40:15;26.20;99.90
6142;DHT22;71289;51.552;6.210;2023-09-07T09:42:42;26.50;99.90
6142;DHT22;71289;51.552;6.210;2023-09-07T09:45:10;26.60;99.90
6142;DHT22;71289;51.552;6.210;2023-09-07T09:47:41;26.80;99.90
6142;DHT22;71289;51.552;6.210;2023-09-07T09:50:11;27.00;99.90
6142;DHT22;71289;51.552;6.210;2023-09-07T09:52:37;27.30;99.90
6142;DHT22;71289;51.552;6.210;2023-09-07T09:55:05;27.00;99.90
6142;DHT22;71289;51.552;6.210;2023-09-07T09:57:37;27.20;99.90
6142;DHT22;71289;51.552;6.210;2023-09-07T10:00:07;27.20;99.90
6142;DHT22;71289;51.552;6.210;2023-09-07T10:02:59;27.20;99.90
6142;DHT22;71289;51.552;6.210;2023-09-07T10:05:26;27.30;99.90
6142;DHT22;71289;51.552;6.210;2023-09-07T10:07:52;27.40;99.90
6142;DHT22;71289;51.552;6.210;2023-09-07T10:10:19;27.40;99.90
6142;DHT22;71289;51.552;6.210;2023-09-07T10:12:52;27.50;99.90
6142;DHT22;71289;51.552;6.210;2023-09-07T10:15:27;27.70;99.90
6142;DHT22;71289;51.552;6.210;2023-09-07T10:18:15;28.00;99.90
6142;DHT22;71289;51.552;6.210;2023-09-07T10:20:58;28.20;99.90
6142;DHT22;71289;51.552;6.210;2023-09-07T10:23:36;28.40;99.90
6142;DHT22;71289;51.552;6.210;2023-09-07T10:26:03;28.70;99.90
6142;DHT22;71289;51.552;6.210;2023-09-07T10:28:32;28.90;99.90
6142;DHT22;71289;51.552;6.210;2023-09-07T10:30:59;28.80;99.90
6142;DHT22;71289;51.552;6.210;2023-09-07T10:33:25;28.90;99.90
6142;DHT22;71289;51.552;6.210;2023-09-07T10:35:51;29.10;99.90
6142;DHT22;71289;51.552;6.210;2023-09-07T10:38:16;29.30;99.90
6142;DHT22;71289;51.552;6.210;2023-09-07T10:40:45;29.50;99.90
6142;DHT22;71289;51.552;6.210;2023-09-07T10:43:11;29.50;99.90
6142;DHT22;71289;51.552;6.210;2023-09-07T10:45:36;29.60;99.90
6142;DHT22;71289;51.552;6.210;2023-09-07T10:48:02;29.00;99.90
6142;DHT22;71289;51.552;6.210;2023-09-07T10:50:42;29.00;99.90
6142;DHT22;71289;51.552;6.210;2023-09-07T10:53:08;29.10;99.90
6142;DHT22;71289;51.552;6.210;2023-09-07T10:55:37;29.20;99.90
6142;DHT22;71289;51.552;6.210;2023-09-07T10:58:06;29.20;99.90
6142;DHT22;71289;51.552;6.210;2023-09-07T11:00:34;28.60;99.90
6142;DHT22;71289;51.552;6.210;2023-09-07T11:03:09;28.60;99.90
6142;DHT22;71289;51.552;6.210;2023-09-07T11:05:37;28.60;99.90
6142;DHT22;71289;51.552;6.210;2023-09-07T11:08:04;28.50;99.90
6142;DHT22;71289;51.552;6.210;2023-09-07T11:10:34;28.60;99.90
6142;DHT22;71289;51.552;6.210;2023-09-07T11:13:04;29.00;99.90
6142;DHT22;71289;51.552;6.210;2023-09-07T11:15:30;29.40;99.90
6142;DHT22;71289;51.552;6.210;2023-09-07T11:17:57;29.70;99.90
6142;DHT22;71289;51.552;6.210;2023-09-07T11:20:23;30.00;99.90
6142;DHT22;71289;51.552;6.210;2023-09-07T11:22:50;30.20;99.90
6142;DHT22;71289;51.552;6.210;2023-09-07T11:25:16;30.30;99.90
6142;DHT22;71289;51.552;6.210;2023-09-07T11:27:41;30.70;99.90
6142;DHT22;71289;51.552;6.210;2023-09-07T11:30:10;30.50;99.90
6142;DHT22;71289;51.552;6.210;2023-09-07T11:32:36;30.70;99.90
6142;DHT22;71289;51.552;6.210;2023-09-07T11:35:03;30.90;99.90
6142;DHT22;71289;51.552;6.210;2023-09-07T11:37:32;31.30;99.90
6142;DHT22;71289;51.552;6.210;2023-09-07T11:39:58;31.80;99.90
6142;DHT22;71289;51.552;6.210;2023-09-07T11:42:24;32.00;99.90
6142;DHT22;71289;51.552;6.210;2023-09-07T11:44:49;32.00;99.90
6142;DHT22;71289;51.552;6.210;2023-09-07T11:47:15;32.00;99.90
6142;DHT22;71289;51.552;6.210;2023-09-07T11:49:40;32.40;99.90
6142;DHT22;71289;51.552;6.210;2023-09-07T11:52:06;32.40;99.90
6142;DHT22;71289;51.552;6.210;2023-09-07T11:54:31;32.20;99.90
6142;DHT22;71289;51.552;6.210;2023-09-07T11:56:57;32.40;99.90
6142;DHT22;71289;51.552;6.210;2023-09-07T11:59:22;32.20;99.90
6142;DHT22;71289;51.552;6.210;2023-09-07T12:01:48;32.30;99.90
6142;DHT22;71289;51.552;6.210;2023-09-07T12:04:14;32.00;99.90
6142;DHT22;71289;51.552;6.210;2023-09-07T12:06:40;32.30;99.90
6142;DHT22;71289;51.552;6.210;2023-09-07T12:09:06;31.90;99.90
6142;DHT22;71289;51.552;6.210;2023-09-07T12:11:33;31.20;99.90
6142;DHT22;71289;51.552;6.210;2023-09-07T12:13:59;31.00;99.90
6142;DHT22;71289;51.552;6.210;2023-09-07T12:16:28;31.10;99.90
6142;DHT22;71289;51.552;6.210;2023-09-07T12:18:53;31.50;99.90
6142;DHT22;71289;51.552;6.210;2023-09-07T12:21:19;30.90;99.90
6142;DHT22;71289;51.552;6.210;2023-09-07T12:23:45;30.60;99.90
6142;DHT22;71289;51.552;6.210;2023-09-07T12:26:12;31.00;99.90
6142;DHT22;71289;51.552;6.210;2023-09-07T12:28:38;31.30;99.90
6142;DHT22;71289;51.552;6.210;2023-09-07T12:31:03;30.90;99.90
6142;DHT22;71289;51.552;6.210;2023-09-07T12:33:30;30.50;99.90
6142;DHT22;71289;51.552;6.210;2023-09-07T12:35:55;30.80;99.90
6142;DHT22;71289;51.552;6.210;2023-09-07T12:38:21;31.00;99.90
6142;DHT22;71289;51.552;6.210;2023-09-07T12:40:52;31.30;99.90
6142;DHT22;71289;51.552;6.210;2023-09-07T12:43:18;31.10;99.90
6142;DHT22;71289;51.552;6.210;2023-09-07T12:45:45;31.00;99.90
6142;DHT22;71289;51.552;6.210;2023-09-07T12:48:10;30.60;99.90
6142;DHT22;71289;51.552;6.210;2023-09-07T12:50:36;30.60;99.90
6142;DHT22;71289;51.552;6.210;2023-09-07T12:53:01;30.30;99.90
6142;DHT22;71289;51.552;6.210;2023-09-07T12:55:27;30.20;99.90
6142;DHT22;71289;51.552;6.210;2023-09-07T12:57:55;30.20;99.90
6142;DHT22;71289;51.552;6.210;2023-09-07T13:00:20;30.10;99.90
6142;DHT22;71289;51.552;6.210;2023-09-07T13:02:46;30.00;99.90
6142;DHT22;71289;51.552;6.210;2023-09-07T13:05:11;30.00;99.90
6142;DHT22;71289;51.552;6.210;2023-09-07T13:07:37;29.80;99.90
6142;DHT22;71289;51.552;6.210;2023-09-07T13:10:02;29.70;99.90
6142;DHT22;71289;51.552;6.210;2023-09-07T13:12:32;29.70;99.90
6142;DHT22;71289;51.552;6.210;2023-09-07T13:14:58;29.70;99.90
6142;DHT22;71289;51.552;6.210;2023-09-07T13:17:23;29.80;99.90
6142;DHT22;71289;51.552;6.210;2023-09-07T13:19:49;29.80;99.90
6142;DHT22;71289;51.552;6.210;2023-09-07T13:22:16;29.90;99.90
6142;DHT22;71289;51.552;6.210;2023-09-07T13:24:42;30.10;99.90
6142;DHT22;71289;51.552;6.210;2023-09-07T13:27:08;30.10;99.90
6142;DHT22;71289;51.552;6.210;2023-09-07T13:29:35;30.10;99.90
6142;DHT22;71289;51.552;6.210;2023-09-07T13:32:01;30.10;99.90
6142;DHT22;71289;51.552;6.210;2023-09-07T13:34:27;30.10;99.90
6142;DHT22;71289;51.552;6.210;2023-09-07T13:36:53;30.20;99.90
6142;DHT22;71289;51.552;6.210;2023-09-07T13:39:19;30.20;99.90
6142;DHT22;71289;51.552;6.210;2023-09-07T13:41:44;30.10;99.90
6142;DHT22;71289;51.552;6.210;2023-09-07T13:44:11;30.20;99.90
6142;DHT22;71289;51.552;6.210;2023-09-07T13:46:37;30.30;99.90
6142;DHT22;71289;51.552;6.210;2023-09-07T13:49:02;30.20;99.90
6142;DHT22;71289;51.552;6.210;2023-09-07T13:51:28;30.20;99.90
6142;DHT22;71289;51.552;6.210;2023-09-07T13:53:57;30.30;99.90
6142;DHT22;71289;51.552;6.210;2023-09-07T13:56:22;30.20;99.90
6142;DHT22;71289;51.552;6.210;2023-09-07T13:58:48;30.30;99.90
6142;DHT22;71289;51.552;6.210;2023-09-07T14:01:13;30.10;99.90
6142;DHT22;71289;51.552;6.210;2023-09-07T14:03:39;30.10;99.90
6142;DHT22;71289;51.552;6.210;2023-09-07T14:06:04;30.10;99.90
6142;DHT22;71289;51.552;6.210;2023-09-07T14:08:30;30.10;99.90
6142;DHT22;71289;51.552;6.210;2023-09-07T14:10:58;30.10;99.90
6142;DHT22;71289;51.552;6.210;2023-09-07T14:13:24;30.20;99.90
6142;DHT22;71289;51.552;6.210;2023-09-07T14:15:49;30.30;99.90
6142;DHT22;71289;51.552;6.210;2023-09-07T14:18:15;30.30;99.90
6142;DHT22;71289;51.552;6.210;2023-09-07T14:20:40;30.40;99.90
6142;DHT22;71289;51.552;6.210;2023-09-07T14:23:06;30.30;99.90
6142;DHT22;71289;51.552;6.210;2023-09-07T14:25:31;30.40;99.90
6142;DHT22;71289;51.552;6.210;2023-09-07T14:27:57;30.70;99.90
6142;DHT22;71289;51.552;6.210;2023-09-07T14:30:22;30.50;99.90
6142;DHT22;71289;51.552;6.210;2023-09-07T14:32:48;30.60;99.90
6142;DHT22;71289;51.552;6.210;2023-09-07T14:35:15;30.70;99.90
6142;DHT22;71289;51.552;6.210;2023-09-07T14:37:41;30.70;99.90
6142;DHT22;71289;51.552;6.210;2023-09-07T14:40:07;30.90;99.90
6142;DHT22;71289;51.552;6.210;2023-09-07T14:42:33;30.90;99.90
6142;DHT22;71289;51.552;6.210;2023-09-07T14:44:59;31.20;99.90
6142;DHT22;71289;51.552;6.210;2023-09-07T14:47:28;31.00;99.90
6142;DHT22;71289;51.552;6.210;2023-09-07T14:49:53;31.00;99.90
6142;DHT22;71289;51.552;6.210;2023-09-07T14:52:20;30.80;99.90
6142;DHT22;71289;51.552;6.210;2023-09-07T14:54:48;30.80;99.90
6142;DHT22;71289;51.552;6.210;2023-09-07T14:57:13;30.80;99.90
6142;DHT22;71289;51.552;6.210;2023-09-07T14:59:39;30.80;99.90
6142;DHT22;71289;51.552;6.210;2023-09-07T15:02:05;30.60;99.90
6142;DHT22;71289;51.552;6.210;2023-09-07T15:04:31;30.60;99.90
6142;DHT22;71289;51.552;6.210;2023-09-07T15:06:57;30.60;99.90
6142;DHT22;71289;51.552;6.210;2023-09-07T15:09:22;30.60;99.90
6142;DHT22;71289;51.552;6.210;2023-09-07T15:11:48;30.70;99.90
6142;DHT22;71289;51.552;6.210;2023-09-07T15:14:13;30.70;99.90
6142;DHT22;71289;51.552;6.210;2023-09-07T15:16:39;30.80;99.90
6142;DHT22;71289;51.552;6.210;2023-09-07T15:19:04;30.70;99.90
6142;DHT22;71289;51.552;6.210;2023-09-07T15:21:30;30.60;99.90
6142;DHT22;71289;51.552;6.210;2023-09-07T15:23:56;30.80;99.90
6142;DHT22;71289;51.552;6.210;2023-09-07T15:26:22;30.80;99.90
6142;DHT22;71289;51.552;6.210;2023-09-07T15:28:49;30.90;99.90
6142;DHT22;71289;51.552;6.210;2023-09-07T15:31:14;30.80;99.90
6142;DHT22;71289;51.552;6.210;2023-09-07T15:33:40;30.50;99.90
6142;DHT22;71289;51.552;6.210;2023-09-07T15:36:05;30.70;99.90
6142;DHT22;71289;51.552;6.210;2023-09-07T15:38:31;30.70;99.90
6142;DHT22;71289;51.552;6.210;2023-09-07T15:40:56;30.80;99.90